sensor_id;sensor_type;location;lat;lon;timestamp;pressure;altitude;pressure_sealevel;temperature;humidity
64158;BME280;50449;51.528;5.076;2022-10-29T00:01:10;102027.81;;;18.50;64.82
64158;BME280;50449;51.528;5.076;2022-10-29T00:03:35;102020.69;;;18.49;64.56
64158;BME280;50449;51.528;5.076;2022-10-29T00:06:04;102020.97;;;18.47;64.96
64158;BME280;50449;51.528;5.076;2022-10-29T00:08:32;102029.41;;;18.46;64.44
64158;BME280;50449;51.528;5.076;2022-10-29T00:11:09;102028.59;;;18.45;64.82
64158;BME280;50449;51.528;5.076;2022-10-29T00:13:36;102038.72;;;18.45;64.68
64158;BME280;50449;51.528;5.076;2022-10-29T00:16:16;102032.69;;;18.43;64.74
64158;BME280;50449;51.528;5.076;2022-10-29T00:18:42;102022.00;;;18.41;64.73
64158;BME280;50449;51.528;5.076;2022-10-29T00:21:12;102017.63;;;18.40;64.96
64158;BME280;50449;51.528;5.076;2022-10-29T00:23:38;102024.16;;;18.39;64.78
64158;BME280;50449;51.528;5.076;2022-10-29T00:26:03;102017.06;;;18.38;64.75
64158;BME280;50449;51.528;5.076;2022-10-29T00:28:29;102023.63;;;18.37;64.91
64158;BME280;50449;51.528;5.076;2022-10-29T00:30:55;102026.63;;;18.35;64.81
64158;BME280;50449;51.528;5.076;2022-10-29T00:33:20;102024.13;;;18.34;64.48
64158;BME280;50449;51.528;5.076;2022-10-29T00:36:06;102031.53;;;18.33;64.40
64158;BME280;50449;51.528;5.076;2022-10-29T00:38:34;102030.97;;;18.31;64.66
64158;BME280;50449;51.528;5.076;2022-10-29T00:41:00;102031.25;;;18.30;64.84
64158;BME280;50449;51.528;5.076;2022-10-29T00:43:26;102034.22;;;18.28;64.82
64158;BME280;50449;51.528;5.076;2022-10-29T00:48:32;102033.66;;;18.26;64.55
64158;BME280;50449;51.528;5.076;2022-10-29T00:50:59;102028.47;;;18.25;64.62
64158;BME280;50449;51.528;5.076;2022-10-29T00:53:29;102033.38;;;18.23;64.87
64158;BME280;50449;51.528;5.076;2022-10-29T00:55:58;102023.78;;;18.20;64.42
64158;BME280;50449;51.528;5.076;2022-10-29T00:58:24;102019.38;;;18.19;64.79
64158;BME280;50449;51.528;5.076;2022-10-29T01:00:50;102021.31;;;18.19;64.57
64158;BME280;50449;51.528;5.076;2022-10-29T01:03:15;102013.38;;;18.17;64.44
64158;BME280;50449;51.528;5.076;2022-10-29T01:05:41;102008.16;;;18.15;64.53
64158;BME280;50449;51.528;5.076;2022-10-29T01:08:09;102010.06;;;18.15;64.74
64158;BME280;50449;51.528;5.076;2022-10-29T01:14:14;102011.44;;;18.12;64.76
64158;BME280;50449;51.528;5.076;2022-10-29T01:30:11;101990.31;;;18.03;64.72
64158;BME280;50449;51.528;5.076;2022-10-29T01:33:05;101996.88;;;18.02;64.48
64158;BME280;50449;51.528;5.076;2022-10-29T01:38:20;101989.97;;;17.99;64.84
64158;BME280;50449;51.528;5.076;2022-10-29T01:41:07;101975.78;;;17.97;64.32
64158;BME280;50449;51.528;5.076;2022-10-29T01:43:57;101967.81;;;17.95;64.29
64158;BME280;50449;51.528;5.076;2022-10-29T01:46:34;101965.34;;;17.94;64.79
64158;BME280;50449;51.528;5.076;2022-10-29T01:49:06;101962.88;;;17.92;64.46
64158;BME280;50449;51.528;5.076;2022-10-29T01:51:34;101973.00;;;17.92;64.46
64158;BME280;50449;51.528;5.076;2022-10-29T01:54:06;101971.34;;;17.91;64.40
64158;BME280;50449;51.528;5.076;2022-10-29T01:56:32;101953.56;;;17.88;64.94
64158;BME280;50449;51.528;5.076;2022-10-29T01:58:58;101960.94;;;17.88;64.60
64158;BME280;50449;51.528;5.076;2022-10-29T02:01:42;101953.84;;;17.87;64.74
64158;BME280;50449;51.528;5.076;2022-10-29T02:12:32;101963.06;;;17.81;64.76
64158;BME280;50449;51.528;5.076;2022-10-29T02:15:05;101969.63;;;17.80;64.83
64158;BME280;50449;51.528;5.076;2022-10-29T02:17:33;101960.59;;;17.79;64.75
64158;BME280;50449;51.528;5.076;2022-10-29T02:20:09;101952.63;;;17.78;64.69
64158;BME280;50449;51.528;5.076;2022-10-29T02:22:35;101951.81;;;17.77;64.40
64158;BME280;50449;51.528;5.076;2022-10-29T02:25:01;101946.59;;;17.76;64.25
64158;BME280;50449;51.528;5.076;2022-10-29T02:27:27;101942.47;;;17.73;64.42
64158;BME280;50449;51.528;5.076;2022-10-29T02:29:52;101937.84;;;17.73;64.68
64158;BME280;50449;51.528;5.076;2022-10-29T02:32:18;101934.56;;;17.71;64.76
64158;BME280;50449;51.528;5.076;2022-10-29T02:34:43;101930.16;;;17.70;64.35
64158;BME280;50449;51.528;5.076;2022-10-29T02:37:09;101930.44;;;17.69;64.63
64158;BME280;50449;51.528;5.076;2022-10-29T02:39:34;101927.97;;;17.67;64.30
64158;BME280;50449;51.528;5.076;2022-10-29T02:41:59;101924.41;;;17.67;64.40
64158;BME280;50449;51.528;5.076;2022-10-29T02:44:25;101927.38;;;17.65;64.53
64158;BME280;50449;51.528;5.076;2022-10-29T02:46:50;101927.63;;;17.64;64.66
64158;BME280;50449;51.528;5.076;2022-10-29T02:49:15;101920.53;;;17.63;64.50
64158;BME280;50449;51.528;5.076;2022-10-29T02:51:41;101923.53;;;17.61;64.58
64158;BME280;50449;51.528;5.076;2022-10-29T02:54:06;101910.13;;;17.60;64.57
64158;BME280;50449;51.528;5.076;2022-10-29T02:56:33;101915.84;;;17.58;64.72
64158;BME280;50449;51.528;5.076;2022-10-29T02:58:58;101907.66;;;17.58;64.43
64158;BME280;50449;51.528;5.076;2022-10-29T03:01:23;101905.44;;;17.55;64.72
64158;BME280;50449;51.528;5.076;2022-10-29T03:03:49;101913.91;;;17.53;64.23
64158;BME280;50449;51.528;5.076;2022-10-29T03:06:16;101907.63;;;17.53;64.71
64158;BME280;50449;51.528;5.076;2022-10-29T03:08:41;101909.53;;;17.52;64.62
64158;BME280;50449;51.528;5.076;2022-10-29T03:11:07;101910.88;;;17.50;64.20
64158;BME280;50449;51.528;5.076;2022-10-29T03:13:33;101908.41;;;17.48;64.61
64158;BME280;50449;51.528;5.076;2022-10-29T03:15:58;101913.84;;;17.48;64.78
64158;BME280;50449;51.528;5.076;2022-10-29T03:18:23;101898.00;;;17.45;64.59
64158;BME280;50449;51.528;5.076;2022-10-29T03:20:49;101908.91;;;17.45;64.66
64158;BME280;50449;51.528;5.076;2022-10-29T03:23:14;101901.81;;;17.44;64.32
64158;BME280;50449;51.528;5.076;2022-10-29T03:25:39;101897.44;;;17.43;64.42
64158;BME280;50449;51.528;5.076;2022-10-29T03:28:05;101896.59;;;17.43;64.18
64158;BME280;50449;51.528;5.076;2022-10-29T03:30:30;101889.50;;;17.42;64.62
64158;BME280;50449;51.528;5.076;2022-10-29T03:32:56;101897.97;;;17.40;64.84
64158;BME280;50449;51.528;5.076;2022-10-29T03:35:21;101893.59;;;17.39;64.63
64158;BME280;50449;51.528;5.076;2022-10-29T03:37:50;101891.94;;;17.38;64.68
64158;BME280;50449;51.528;5.076;2022-10-29T03:40:17;101883.19;;;17.36;64.81
64158;BME280;50449;51.528;5.076;2022-10-29T03:42:42;101884.25;;;17.35;64.65
64158;BME280;50449;51.528;5.076;2022-10-29T03:45:08;101880.72;;;17.35;64.66
64158;BME280;50449;51.528;5.076;2022-10-29T03:47:34;101870.03;;;17.33;64.48
64158;BME280;50449;51.528;5.076;2022-10-29T03:50:00;101867.59;;;17.32;64.90
64158;BME280;50449;51.528;5.076;2022-10-29T03:52:26;101867.59;;;17.32;64.56
64158;BME280;50449;51.528;5.076;2022-10-29T03:54:51;101856.09;;;17.29;64.82
64158;BME280;50449;51.528;5.076;2022-10-29T03:57:16;101862.63;;;17.28;64.50
64158;BME280;50449;51.528;5.076;2022-10-29T03:59:42;101859.06;;;17.28;64.52
64158;BME280;50449;51.528;5.076;2022-10-29T04:02:08;101851.97;;;17.27;64.72
64158;BME280;50449;51.528;5.076;2022-10-29T04:04:33;101860.97;;;17.27;64.46
64158;BME280;50449;51.528;5.076;2022-10-29T04:06:59;101858.78;;;17.24;64.57
64158;BME280;50449;51.528;5.076;2022-10-29T04:09:24;101851.66;;;17.23;64.55
64158;BME280;50449;51.528;5.076;2022-10-29T04:11:49;101849.19;;;17.22;64.87
64158;BME280;50449;51.528;5.076;2022-10-29T04:14:15;101847.53;;;17.21;64.53
64158;BME280;50449;51.528;5.076;2022-10-29T04:16:40;101849.44;;;17.20;64.41
64158;BME280;50449;51.528;5.076;2022-10-29T04:19:05;101838.81;;;17.19;64.92
64158;BME280;50449;51.528;5.076;2022-10-29T04:21:31;101837.97;;;17.18;64.81
64158;BME280;50449;51.528;5.076;2022-10-29T04:23:56;101836.31;;;17.17;64.88
64158;BME280;50449;51.528;5.076;2022-10-29T04:26:22;101840.16;;;17.16;64.90
64158;BME280;50449;51.528;5.076;2022-10-29T04:28:48;101840.41;;;17.15;64.95
64158;BME280;50449;51.528;5.076;2022-10-29T04:31:14;101837.66;;;17.15;64.92
64158;BME280;50449;51.528;5.076;2022-10-29T04:33:39;101837.91;;;17.13;64.92
64158;BME280;50449;51.528;5.076;2022-10-29T04:36:05;101834.38;;;17.13;65.03
64158;BME280;50449;51.528;5.076;2022-10-29T04:38:31;101835.47;;;17.12;64.66
64158;BME280;50449;51.528;5.076;2022-10-29T04:40:57;101831.91;;;17.11;64.95
64158;BME280;50449;51.528;5.076;2022-10-29T04:43:23;101835.72;;;17.10;64.68
64158;BME280;50449;51.528;5.076;2022-10-29T04:45:51;101840.34;;;17.09;64.95
64158;BME280;50449;51.528;5.076;2022-10-29T04:48:16;101835.16;;;17.08;64.83
64158;BME280;50449;51.528;5.076;2022-10-29T04:50:42;101842.50;;;17.07;64.62
64158;BME280;50449;51.528;5.076;2022-10-29T04:53:07;101841.94;;;17.05;64.89
64158;BME280;50449;51.528;5.076;2022-10-29T04:55:35;101839.22;;;17.05;64.57
64158;BME280;50449;51.528;5.076;2022-10-29T04:58:01;101820.38;;;17.04;64.94
64158;BME280;50449;51.528;5.076;2022-10-29T05:00:27;101830.50;;;17.03;64.87
64158;BME280;50449;51.528;5.076;2022-10-29T05:02:52;101829.63;;;17.03;64.97
64158;BME280;50449;51.528;5.076;2022-10-29T05:05:19;101832.66;;;17.01;65.11
64158;BME280;50449;51.528;5.076;2022-10-29T05:07:45;101825.53;;;17.00;64.69
64158;BME280;50449;51.528;5.076;2022-10-29T05:10:11;101829.34;;;16.99;64.86
64158;BME280;50449;51.528;5.076;2022-10-29T05:12:36;101826.88;;;16.98;65.15
64158;BME280;50449;51.528;5.076;2022-10-29T05:15:02;101817.03;;;16.97;64.85
64158;BME280;50449;51.528;5.076;2022-10-29T05:17:27;101825.22;;;16.97;64.83
64158;BME280;50449;51.528;5.076;2022-10-29T05:19:53;101812.66;;;16.96;64.76
64158;BME280;50449;51.528;5.076;2022-10-29T05:22:18;101813.75;;;16.95;64.81
64158;BME280;50449;51.528;5.076;2022-10-29T05:24:43;101807.47;;;16.94;65.04
64158;BME280;50449;51.528;5.076;2022-10-29T05:27:09;101803.06;;;16.93;64.53
64158;BME280;50449;51.528;5.076;2022-10-29T05:29:34;101800.63;;;16.92;64.68
64158;BME280;50449;51.528;5.076;2022-10-29T05:32:00;101797.06;;;16.91;64.74
64158;BME280;50449;51.528;5.076;2022-10-29T05:34:25;101800.06;;;16.90;64.89
64158;BME280;50449;51.528;5.076;2022-10-29T05:36:51;101796.50;;;16.89;64.97
64158;BME280;50449;51.528;5.076;2022-10-29T05:39:16;101789.38;;;16.88;64.88
64158;BME280;50449;51.528;5.076;2022-10-29T05:41:42;101797.56;;;16.88;65.04
64158;BME280;50449;51.528;5.076;2022-10-29T05:44:07;101790.47;;;16.87;64.64
64158;BME280;50449;51.528;5.076;2022-10-29T05:46:33;101788.00;;;16.85;64.87
64158;BME280;50449;51.528;5.076;2022-10-29T05:48:58;101789.09;;;16.84;64.92
64158;BME280;50449;51.528;5.076;2022-10-29T05:51:23;101791.81;;;16.84;64.70
64158;BME280;50449;51.528;5.076;2022-10-29T05:53:49;101788.28;;;16.84;65.06
64158;BME280;50449;51.528;5.076;2022-10-29T05:56:14;101783.06;;;16.82;65.08
64158;BME280;50449;51.528;5.076;2022-10-29T05:58:40;101779.53;;;16.82;65.20
64158;BME280;50449;51.528;5.076;2022-10-29T06:01:06;101786.88;;;16.81;64.79
64158;BME280;50449;51.528;5.076;2022-10-29T06:03:32;101799.72;;;16.81;64.77
64158;BME280;50449;51.528;5.076;2022-10-29T06:05:57;101809.78;;;16.80;64.56
64158;BME280;50449;51.528;5.076;2022-10-29T06:08:23;101802.69;;;16.79;65.01
64158;BME280;50449;51.528;5.076;2022-10-29T06:10:48;101794.75;;;16.78;64.94
64158;BME280;50449;51.528;5.076;2022-10-29T06:13:15;101794.75;;;16.78;64.94
64158;BME280;50449;51.528;5.076;2022-10-29T06:15:42;101793.09;;;16.77;65.08
64158;BME280;50449;51.528;5.076;2022-10-29T06:18:08;101791.44;;;16.76;65.11
64158;BME280;50449;51.528;5.076;2022-10-29T06:20:34;101794.19;;;16.76;64.98
64158;BME280;50449;51.528;5.076;2022-10-29T06:23:00;101792.50;;;16.75;65.32
64158;BME280;50449;51.528;5.076;2022-10-29T06:25:26;101790.06;;;16.73;64.98
64158;BME280;50449;51.528;5.076;2022-10-29T06:28:02;101787.34;;;16.73;65.22
64158;BME280;50449;51.528;5.076;2022-10-29T06:30:30;101788.69;;;16.71;65.23
64158;BME280;50449;51.528;5.076;2022-10-29T06:32:55;101785.94;;;16.71;64.86
64158;BME280;50449;51.528;5.076;2022-10-29T06:35:21;101796.88;;;16.71;64.99
64158;BME280;50449;51.528;5.076;2022-10-29T06:37:47;101813.47;;;16.69;64.96
64158;BME280;50449;51.528;5.076;2022-10-29T06:40:12;101818.13;;;16.69;64.96
64158;BME280;50449;51.528;5.076;2022-10-29T06:42:38;101822.72;;;16.68;64.99
64158;BME280;50449;51.528;5.076;2022-10-29T06:45:03;101822.72;;;16.68;64.95
64158;BME280;50449;51.528;5.076;2022-10-29T06:47:29;101819.19;;;16.67;65.45
64158;BME280;50449;51.528;5.076;2022-10-29T06:49:54;101819.44;;;16.66;65.00
64158;BME280;50449;51.528;5.076;2022-10-29T06:52:20;101813.16;;;16.65;65.35
64158;BME280;50449;51.528;5.076;2022-10-29T06:54:45;101802.22;;;16.65;65.13
64158;BME280;50449;51.528;5.076;2022-10-29T06:57:10;101798.69;;;16.65;65.21
64158;BME280;50449;51.528;5.076;2022-10-29T06:59:36;101792.66;;;16.63;65.15
64158;BME280;50449;51.528;5.076;2022-10-29T07:02:01;101793.50;;;16.63;65.35
64158;BME280;50449;51.528;5.076;2022-10-29T07:04:27;101797.31;;;16.62;65.25
64158;BME280;50449;51.528;5.076;2022-10-29T07:06:52;101798.41;;;16.61;65.57
64158;BME280;50449;51.528;5.076;2022-10-29T07:09:17;101790.22;;;16.61;65.31
64158;BME280;50449;51.528;5.076;2022-10-29T07:11:43;101780.13;;;16.62;65.33
64158;BME280;50449;51.528;5.076;2022-10-29T07:14:08;101783.94;;;16.61;65.25
64158;BME280;50449;51.528;5.076;2022-10-29T07:16:34;101777.63;;;16.60;65.18
64158;BME280;50449;51.528;5.076;2022-10-29T07:19:00;101780.38;;;16.60;65.67
64158;BME280;50449;51.528;5.076;2022-10-29T07:21:26;101776.00;;;16.59;65.79
64158;BME280;50449;51.528;5.076;2022-10-29T07:23:51;101775.44;;;16.57;65.63
64158;BME280;50449;51.528;5.076;2022-10-29T07:26:17;101775.44;;;16.57;65.38
64158;BME280;50449;51.528;5.076;2022-10-29T07:28:42;101772.69;;;16.57;65.48
64158;BME280;50449;51.528;5.076;2022-10-29T07:31:08;101776.53;;;16.56;65.52
64158;BME280;50449;51.528;5.076;2022-10-29T07:33:33;101770.25;;;16.56;65.86
64158;BME280;50449;51.528;5.076;2022-10-29T07:35:59;101781.97;;;16.56;65.86
64158;BME280;50449;51.528;5.076;2022-10-29T07:38:25;101783.03;;;16.55;65.45
64158;BME280;50449;51.528;5.076;2022-10-29T07:40:50;101782.22;;;16.55;65.67
64158;BME280;50449;51.528;5.076;2022-10-29T07:43:17;101773.22;;;16.54;65.96
64158;BME280;50449;51.528;5.076;2022-10-29T07:45:44;101777.88;;;16.54;65.86
64158;BME280;50449;51.528;5.076;2022-10-29T07:48:09;101773.47;;;16.53;65.84
64158;BME280;50449;51.528;5.076;2022-10-29T07:50:36;101774.31;;;16.53;65.75
64158;BME280;50449;51.528;5.076;2022-10-29T07:53:03;101775.13;;;16.54;65.93
64158;BME280;50449;51.528;5.076;2022-10-29T07:55:29;101781.66;;;16.53;65.84
64158;BME280;50449;51.528;5.076;2022-10-29T07:57:58;101779.78;;;16.53;66.13
64158;BME280;50449;51.528;5.076;2022-10-29T08:00:29;101766.38;;;16.52;65.73
64158;BME280;50449;51.528;5.076;2022-10-29T08:02:55;101764.47;;;16.52;65.69
64158;BME280;50449;51.528;5.076;2022-10-29T08:05:22;101773.47;;;16.53;66.17
64158;BME280;50449;51.528;5.076;2022-10-29T08:07:48;101764.75;;;16.51;66.04
64158;BME280;50449;51.528;5.076;2022-10-29T08:10:13;101766.38;;;16.52;65.93
64158;BME280;50449;51.528;5.076;2022-10-29T08:12:38;101759.28;;;16.51;66.19
64158;BME280;50449;51.528;5.076;2022-10-29T08:15:04;101757.38;;;16.51;66.24
64158;BME280;50449;51.528;5.076;2022-10-29T08:17:31;101749.19;;;16.51;66.49
64158;BME280;50449;51.528;5.076;2022-10-29T08:19:56;101749.19;;;16.51;66.46
64158;BME280;50449;51.528;5.076;2022-10-29T08:22:21;101751.13;;;16.51;66.41
64158;BME280;50449;51.528;5.076;2022-10-29T08:24:47;101769.09;;;16.52;66.25
64158;BME280;50449;51.528;5.076;2022-10-29T08:27:12;101771.84;;;16.52;66.71
64158;BME280;50449;51.528;5.076;2022-10-29T08:29:38;101773.75;;;16.51;66.65
64158;BME280;50449;51.528;5.076;2022-10-29T08:32:03;101764.47;;;16.52;66.92
64158;BME280;50449;51.528;5.076;2022-10-29T08:34:28;101772.41;;;16.54;67.19
64158;BME280;50449;51.528;5.076;2022-10-29T08:36:54;101774.03;;;16.55;66.88
64158;BME280;50449;51.528;5.076;2022-10-29T08:39:19;101767.78;;;16.54;67.28
64158;BME280;50449;51.528;5.076;2022-10-29T08:47:25;101757.09;;;16.53;67.42
64158;BME280;50449;51.528;5.076;2022-10-29T08:52:29;101744.31;;;16.53;67.90
64158;BME280;50449;51.528;5.076;2022-10-29T08:55:17;101749.78;;;16.53;68.74
64158;BME280;50449;51.528;5.076;2022-10-29T08:57:48;101757.09;;;16.53;68.01
64158;BME280;50449;51.528;5.076;2022-10-29T09:00:18;101742.41;;;16.54;68.23
64158;BME280;50449;51.528;5.076;2022-10-29T09:02:44;101749.78;;;16.53;68.32
64158;BME280;50449;51.528;5.076;2022-10-29T09:05:14;101747.03;;;16.53;68.32
64158;BME280;50449;51.528;5.076;2022-10-29T09:13:17;101751.41;;;16.54;69.23
64158;BME280;50449;51.528;5.076;2022-10-29T09:16:09;101745.13;;;16.54;69.52
64158;BME280;50449;51.528;5.076;2022-10-29T09:18:45;101746.75;;;16.55;69.30
64158;BME280;50449;51.528;5.076;2022-10-29T09:21:28;101737.53;;;16.56;69.34
64158;BME280;50449;51.528;5.076;2022-10-29T09:26:30;101727.44;;;16.56;69.72
64158;BME280;50449;51.528;5.076;2022-10-29T09:31:58;101743.50;;;16.58;69.97
64158;BME280;50449;51.528;5.076;2022-10-29T09:34:30;101738.63;;;16.60;70.49
64158;BME280;50449;51.528;5.076;2022-10-29T09:36:57;101727.72;;;16.60;70.56
64158;BME280;50449;51.528;5.076;2022-10-29T09:39:31;101720.34;;;16.60;70.85
64158;BME280;50449;51.528;5.076;2022-10-29T09:41:58;101713.84;;;16.61;70.49
64158;BME280;50449;51.528;5.076;2022-10-29T09:44:49;101710.81;;;16.63;71.05
64158;BME280;50449;51.528;5.076;2022-10-29T09:47:22;101707.03;;;16.64;70.67
64158;BME280;50449;51.528;5.076;2022-10-29T09:50:10;101714.94;;;16.65;71.28
64158;BME280;50449;51.528;5.076;2022-10-29T09:52:41;101718.53;;;16.66;71.26
64158;BME280;50449;51.528;5.076;2022-10-29T09:55:16;101710.38;;;16.71;71.51
64158;BME280;50449;51.528;5.076;2022-10-29T09:57:43;101715.31;;;16.74;71.73
64158;BME280;50449;51.528;5.076;2022-10-29T10:02:47;101717.50;;;16.77;72.04
64158;BME280;50449;51.528;5.076;2022-10-29T10:05:18;101714.03;;;16.82;71.77
64158;BME280;50449;51.528;5.076;2022-10-29T10:08:04;101701.84;;;16.95;71.96
64158;BME280;50449;51.528;5.076;2022-10-29T10:10:33;101694.50;;;17.00;71.47
64158;BME280;50449;51.528;5.076;2022-10-29T10:13:03;101701.09;;;17.04;71.50
64158;BME280;50449;51.528;5.076;2022-10-29T10:15:32;101695.38;;;17.06;72.10
64158;BME280;50449;51.528;5.076;2022-10-29T10:18:03;101704.13;;;17.08;72.02
64158;BME280;50449;51.528;5.076;2022-10-29T10:20:39;101700.56;;;17.07;72.08
64158;BME280;50449;51.528;5.076;2022-10-29T10:23:43;101698.41;;;17.09;72.06
64158;BME280;50449;51.528;5.076;2022-10-29T10:26:37;101698.16;;;17.11;72.62
64158;BME280;50449;51.528;5.076;2022-10-29T10:29:14;101689.97;;;17.11;72.07
64158;BME280;50449;51.528;5.076;2022-10-29T10:31:42;101676.31;;;17.11;72.14
64158;BME280;50449;51.528;5.076;2022-10-29T10:37:01;101677.41;;;17.15;72.22
64158;BME280;50449;51.528;5.076;2022-10-29T10:39:33;101673.59;;;17.16;71.85
64158;BME280;50449;51.528;5.076;2022-10-29T10:42:50;101678.78;;;17.18;72.38
64158;BME280;50449;51.528;5.076;2022-10-29T10:44:52;101672.25;;;17.19;72.33
64158;BME280;50449;51.528;5.076;2022-10-29T10:47:23;101676.38;;;17.21;72.13
64158;BME280;50449;51.528;5.076;2022-10-29T10:49:50;101676.66;;;17.25;71.92
64158;BME280;50449;51.528;5.076;2022-10-29T10:52:27;101671.75;;;17.27;72.25
64158;BME280;50449;51.528;5.076;2022-10-29T10:54:59;101677.78;;;17.29;72.60
64158;BME280;50449;51.528;5.076;2022-10-29T10:57:49;101674.75;;;17.30;72.56
64158;BME280;50449;51.528;5.076;2022-10-29T11:00:19;101668.22;;;17.32;72.58
64158;BME280;50449;51.528;5.076;2022-10-29T11:05:22;101666.34;;;17.37;72.26
64158;BME280;50449;51.528;5.076;2022-10-29T11:10:18;101661.16;;;17.41;71.85
64158;BME280;50449;51.528;5.076;2022-10-29T11:12:52;101658.16;;;17.42;72.05
64158;BME280;50449;51.528;5.076;2022-10-29T11:18:21;101656.28;;;17.48;71.27
64158;BME280;50449;51.528;5.076;2022-10-29T11:21:41;101656.03;;;17.49;71.23
64158;BME280;50449;51.528;5.076;2022-10-29T11:26:29;101654.69;;;17.57;70.92
64158;BME280;50449;51.528;5.076;2022-10-29T11:31:47;101638.31;;;17.62;70.90
64158;BME280;50449;51.528;5.076;2022-10-29T11:34:30;101638.03;;;17.64;70.92
64158;BME280;50449;51.528;5.076;2022-10-29T11:37:11;101638.31;;;17.67;71.04
64158;BME280;50449;51.528;5.076;2022-10-29T11:40:03;101639.69;;;17.70;71.02
64158;BME280;50449;51.528;5.076;2022-10-29T11:42:34;101632.88;;;17.72;70.40
64158;BME280;50449;51.528;5.076;2022-10-29T11:45:00;101634.00;;;17.77;70.02
64158;BME280;50449;51.528;5.076;2022-10-29T11:47:38;101634.53;;;17.79;70.26
64158;BME280;50449;51.528;5.076;2022-10-29T11:56:21;101622.81;;;17.88;70.02
64158;BME280;50449;51.528;5.076;2022-10-29T11:58:49;101616.00;;;17.91;69.43
64158;BME280;50449;51.528;5.076;2022-10-29T12:01:31;101620.09;;;17.93;69.39
64158;BME280;50449;51.528;5.076;2022-10-29T12:04:25;101614.09;;;17.97;69.19
64158;BME280;50449;51.528;5.076;2022-10-29T12:08:16;101609.72;;;18.01;69.23
64158;BME280;50449;51.528;5.076;2022-10-29T12:10:46;101605.63;;;18.03;69.31
64158;BME280;50449;51.528;5.076;2022-10-29T12:13:27;101601.53;;;18.06;69.35
64158;BME280;50449;51.528;5.076;2022-10-29T12:21:12;101591.72;;;18.15;68.71
64158;BME280;50449;51.528;5.076;2022-10-29T12:24:02;101588.41;;;18.18;68.19
64158;BME280;50449;51.528;5.076;2022-10-29T12:26:39;101584.31;;;18.21;68.02
64158;BME280;50449;51.528;5.076;2022-10-29T12:29:14;101581.03;;;18.24;68.30
64158;BME280;50449;51.528;5.076;2022-10-29T12:37:14;101566.53;;;18.33;68.11
64158;BME280;50449;51.528;5.076;2022-10-29T12:39:47;101558.06;;;18.35;67.95
64158;BME280;50449;51.528;5.076;2022-10-29T12:42:19;101560.25;;;18.38;68.07
64158;BME280;50449;51.528;5.076;2022-10-29T12:44:59;101562.41;;;18.41;67.73
64158;BME280;50449;51.528;5.076;2022-10-29T12:48:08;101565.44;;;18.45;67.69
64158;BME280;50449;51.528;5.076;2022-10-29T12:56:14;101552.28;;;18.52;67.42
64158;BME280;50449;51.528;5.076;2022-10-29T12:58:52;101553.63;;;18.54;67.20
64158;BME280;50449;51.528;5.076;2022-10-29T13:06:43;101552.00;;;18.64;67.44
64158;BME280;50449;51.528;5.076;2022-10-29T13:09:23;101552.53;;;18.66;67.01
64158;BME280;50449;51.528;5.076;2022-10-29T13:11:54;101541.03;;;18.69;67.06
64158;BME280;50449;51.528;5.076;2022-10-29T13:16:51;101543.75;;;18.74;66.89
64158;BME280;50449;51.528;5.076;2022-10-29T13:22:30;101550.34;;;18.78;66.73
64158;BME280;50449;51.528;5.076;2022-10-29T13:27:51;101548.41;;;18.84;66.79
64158;BME280;50449;51.528;5.076;2022-10-29T13:30:22;101542.66;;;18.85;67.04
64158;BME280;50449;51.528;5.076;2022-10-29T13:32:51;101535.81;;;18.88;66.73
64158;BME280;50449;51.528;5.076;2022-10-29T13:43:09;101522.91;;;18.98;66.63
64158;BME280;50449;51.528;5.076;2022-10-29T13:45:38;101522.63;;;19.00;67.04
64158;BME280;50449;51.528;5.076;2022-10-29T13:48:33;101521.25;;;19.02;66.96
64158;BME280;50449;51.528;5.076;2022-10-29T13:51:04;101522.63;;;19.05;66.86
64158;BME280;50449;51.528;5.076;2022-10-29T13:53:53;101518.50;;;19.08;67.09
64158;BME280;50449;51.528;5.076;2022-10-29T13:56:32;101524.47;;;19.10;66.75
64158;BME280;50449;51.528;5.076;2022-10-29T13:59:00;101525.84;;;19.12;67.21
64158;BME280;50449;51.528;5.076;2022-10-29T14:01:28;101520.91;;;19.14;67.27
64158;BME280;50449;51.528;5.076;2022-10-29T14:04:01;101523.91;;;19.18;66.74
64158;BME280;50449;51.528;5.076;2022-10-29T14:06:32;101523.63;;;19.19;67.23
64158;BME280;50449;51.528;5.076;2022-10-29T14:09:41;101522.22;;;19.22;66.84
64158;BME280;50449;51.528;5.076;2022-10-29T14:12:01;101521.66;;;19.25;66.81
64158;BME280;50449;51.528;5.076;2022-10-29T14:14:31;101521.41;;;19.27;67.33
64158;BME280;50449;51.528;5.076;2022-10-29T14:17:13;101521.63;;;19.30;67.57
64158;BME280;50449;51.528;5.076;2022-10-29T14:19:46;101518.91;;;19.30;67.45
64158;BME280;50449;51.528;5.076;2022-10-29T14:24:44;101526.28;;;19.35;67.57
64158;BME280;50449;51.528;5.076;2022-10-29T14:27:12;101515.59;;;19.38;67.26
64158;BME280;50449;51.528;5.076;2022-10-29T14:29:41;101513.38;;;19.40;67.42
64158;BME280;50449;51.528;5.076;2022-10-29T14:32:11;101513.91;;;19.42;67.93
64158;BME280;50449;51.528;5.076;2022-10-29T14:34:37;101514.44;;;19.44;67.70
64158;BME280;50449;51.528;5.076;2022-10-29T14:37:10;101509.50;;;19.46;67.66
64158;BME280;50449;51.528;5.076;2022-10-29T14:39:40;101505.38;;;19.49;68.04
64158;BME280;50449;51.528;5.076;2022-10-29T14:42:15;101505.09;;;19.51;67.82
64158;BME280;50449;51.528;5.076;2022-10-29T14:44:46;101496.56;;;19.52;68.22
64158;BME280;50449;51.528;5.076;2022-10-29T14:49:52;101494.09;;;19.56;67.78
64158;BME280;50449;51.528;5.076;2022-10-29T14:52:29;101493.00;;;19.57;67.58
64158;BME280;50449;51.528;5.076;2022-10-29T14:54:58;101493.53;;;19.59;68.03
64158;BME280;50449;51.528;5.076;2022-10-29T14:57:28;101492.41;;;19.60;67.72
64158;BME280;50449;51.528;5.076;2022-10-29T15:00:00;101484.72;;;19.62;67.88
64158;BME280;50449;51.528;5.076;2022-10-29T15:02:36;101488.00;;;19.64;67.73